Time;durP1;ratioP1;P1;durP2;ratioP2;P2;SDS_P1;SDS_P2;PMS_P1;PMS_P2;Temp;Humidity;BMP_temperature;BMP_pressure;BME280_temperature;BME280_humidity;BME280_pressure;Samples;Min_cycle;Max_cycle;Signal;HPM_P1;HPM_P2
2022/08/31 00:05:26;;;;;;;6.80;4.05;;;;;;;16.85;100.00;95949.16;5037580;28;20041;-62
2022/08/31 00:07:52;;;;;;;4.40;3.55;;;;;;;16.86;100.00;95939.38;5032224;28;20038;-63
2022/08/31 00:10:19;;;;;;;7.78;3.88;;;;;;;16.88;100.00;95940.00;5038030;28;20044;-61
2022/08/31 00:12:47;;;;;;;4.63;4.20;;;;;;;16.90;100.00;95946.78;5036863;28;20029;-62
2022/08/31 00:15:17;;;;;;;6.53;3.92;;;;;;;16.91;100.00;95950.28;5037389;28;20039;-62
2022/08/31 00:17:43;;;;;;;4.40;3.67;;;;;;;16.88;100.00;95954.13;5040123;28;20017;-62
2022/08/31 00:20:13;;;;;;;6.03;3.42;;;;;;;16.88;100.00;95948.81;5036591;28;20045;-62
2022/08/31 00:22:38;;;;;;;3.75;3.40;;;;;;;16.87;100.00;95952.47;5036064;28;20049;-62
2022/08/31 00:25:04;;;;;;;5.88;3.45;;;;;;;16.89;100.00;95945.13;5036462;28;20095;-62
2022/08/31 00:27:29;;;;;;;3.95;3.63;;;;;;;16.92;100.00;95946.63;5029528;28;20033;-61
2022/08/31 00:29:55;;;;;;;4.15;3.75;;;;;;;16.93;100.00;95940.31;5033074;28;20052;-62
2022/08/31 00:32:20;;;;;;;5.00;3.80;;;;;;;16.92;100.00;95943.16;5033924;28;20032;-62
2022/08/31 00:34:45;;;;;;;3.75;3.45;;;;;;;16.93;100.00;95937.66;5036621;28;20148;-62
2022/08/31 00:37:11;;;;;;;5.70;3.35;;;;;;;16.92;100.00;95938.66;5036933;28;20164;-62
2022/08/31 00:39:36;;;;;;;4.07;3.45;;;;;;;16.95;100.00;95937.47;5034832;28;20379;-62
2022/08/31 00:42:06;;;;;;;4.28;3.88;;;;;;;16.97;100.00;95938.94;5034939;28;20099;-61
2022/08/31 00:44:32;;;;;;;3.95;3.35;;;;;;;16.94;100.00;95941.97;5041020;28;20516;-61
2022/08/31 00:46:57;;;;;;;4.25;3.88;;;;;;;16.90;100.00;95944.13;5031914;28;20071;-62
2022/08/31 00:49:28;;;;;;;4.03;3.63;;;;;;;16.92;100.00;95941.31;5038115;28;20025;-62
2022/08/31 00:51:57;;;;;;;4.93;3.65;;;;;;;16.93;100.00;95950.13;5036072;28;20116;-62
2022/08/31 00:54:29;;;;;;;5.80;3.67;;;;;;;16.92;100.00;95937.84;5039215;28;20492;-62
2022/08/31 00:56:54;;;;;;;4.22;3.83;;;;;;;16.92;100.00;95938.66;5038614;28;20032;-62
2022/08/31 00:59:20;;;;;;;3.95;3.65;;;;;;;16.92;100.00;95937.84;5034891;28;20025;-62
2022/08/31 01:01:46;;;;;;;6.20;4.05;;;;;;;16.92;100.00;95930.66;5033005;28;20036;-61
2022/08/31 01:04:11;;;;;;;4.47;3.80;;;;;;;16.90;100.00;95930.84;5033260;28;20026;-62
2022/08/31 01:06:38;;;;;;;6.55;4.28;;;;;;;16.92;100.00;95932.53;5040298;28;20056;-62
2022/08/31 01:09:05;;;;;;;6.60;4.07;;;;;;;16.92;100.00;95932.53;5033590;28;20040;-63
2022/08/31 01:11:32;;;;;;;6.80;3.78;;;;;;;16.95;100.00;95937.47;5043943;28;20028;-62
2022/08/31 01:13:58;;;;;;;8.52;4.40;;;;;;;17.00;100.00;95929.81;5046089;28;20041;-63
2022/08/31 01:16:31;;;;;;;6.68;3.80;;;;;;;17.06;100.00;95926.44;5036217;28;20027;-63
2022/08/31 01:18:59;;;;;;;5.40;3.67;;;;;;;17.09;100.00;95926.09;5035365;28;20049;-62
2022/08/31 01:21:29;;;;;;;4.53;3.78;;;;;;;17.10;100.00;95930.41;5038799;28;20465;-62
2022/08/31 01:23:58;;;;;;;4.90;4.07;;;;;;;17.10;100.00;95925.09;5047204;28;20025;-62
2022/08/31 01:26:26;;;;;;;5.45;3.90;;;;;;;17.09;100.00;95931.41;5041875;28;20028;-62
2022/08/31 01:28:57;;;;;;;6.53;3.55;;;;;;;17.02;100.00;95925.16;5041063;28;20029;-63
2022/08/31 01:31:27;;;;;;;5.15;3.65;;;;;;;17.02;100.00;95938.44;5042245;28;20087;-62
2022/08/31 01:33:53;;;;;;;5.47;3.75;;;;;;;17.03;100.00;95937.44;5036589;28;20033;-62
2022/08/31 01:36:19;;;;;;;9.05;4.45;;;;;;;17.04;100.00;95941.75;5038532;28;20507;-61
2022/08/31 01:38:45;;;;;;;9.48;4.75;;;;;;;17.02;100.00;95938.44;5038519;28;20052;-62
2022/08/31 01:41:11;;;;;;;7.35;4.28;;;;;;;16.98;100.00;95931.81;5036364;28;20044;-62
2022/08/31 01:43:36;;;;;;;4.68;4.20;;;;;;;16.94;100.00;95935.81;5038942;28;20029;-63
2022/08/31 01:46:08;;;;;;;5.88;4.18;;;;;;;16.93;100.00;95928.84;5042288;28;20170;-62
2022/08/31 01:48:34;;;;;;;5.13;4.63;;;;;;;16.92;100.00;95928.00;5044065;28;20060;-62
2022/08/31 01:51:00;;;;;;;4.28;3.67;;;;;;;16.90;100.00;95933.50;5034325;28;20033;-63
2022/08/31 01:53:25;;;;;;;4.60;4.13;;;;;;;16.93;100.00;95936.84;5002481;28;20105;-62
2022/08/31 01:55:51;;;;;;;6.72;4.35;;;;;;;16.94;100.00;95938.50;5035751;28;20420;-62
2022/08/31 01:58:16;;;;;;;5.80;4.07;;;;;;;16.93;100.00;95936.84;5038758;28;20124;-62
2022/08/31 02:00:42;;;;;;;4.68;3.72;;;;;;;16.88;100.00;95932.03;5040858;28;20030;-62
2022/08/31 02:03:08;;;;;;;4.45;4.10;;;;;;;16.90;100.00;95924.72;5040597;28;20056;-63
2022/08/31 02:05:35;;;;;;;6.55;4.03;;;;;;;16.93;100.00;95928.84;5041633;28;20140;-62
2022/08/31 02:08:02;;;;;;;4.15;3.65;;;;;;;16.94;100.00;95927.84;5039096;28;20021;-63
2022/08/31 02:10:27;;;;;;;3.60;3.30;;;;;;;16.94;100.00;95930.50;5044315;28;20094;-62
2022/08/31 02:12:52;;;;;;;6.18;4.32;;;;;;;16.91;100.00;95926.34;5038607;28;20037;-62
2022/08/31 02:15:18;;;;;;;4.47;4.07;;;;;;;16.96;100.00;95931.16;5043851;28;20082;-62
2022/08/31 02:17:44;;;;;;;7.13;3.90;;;;;;;16.96;100.00;95928.50;5034782;28;20025;-62
2022/08/31 02:20:11;;;;;;;4.40;3.88;;;;;;;16.97;100.00;95927.50;5037589;28;20159;-62
2022/08/31 02:22:37;;;;;;;6.57;5.85;;;;;;;16.93;100.00;95935.00;5038705;28;20036;-62
2022/08/31 02:25:04;;;;;;;4.57;4.18;;;;;;;16.93;100.00;95926.19;5017555;28;20032;-62
2022/08/31 02:27:30;;;;;;;4.40;4.00;;;;;;;16.92;100.00;95929.84;5041283;28;20052;-62
2022/08/31 02:29:55;;;;;;;4.68;4.28;;;;;;;16.87;100.00;95923.22;5038133;28;20059;-62
2022/08/31 02:32:21;;;;;;;7.70;5.57;;;;;;;16.87;100.00;95927.72;5034020;28;20049;-62
2022/08/31 02:34:47;;;;;;;4.97;4.00;;;;;;;16.87;100.00;95925.88;5036152;28;20027;-61
2022/08/31 02:37:13;;;;;;;5.57;4.72;;;;;;;16.88;100.00;95929.38;5036847;28;20024;-62
2022/08/31 02:39:39;;;;;;;4.90;4.50;;;;;;;16.89;100.00;95934.50;5036044;28;20581;-62
2022/08/31 02:42:04;;;;;;;6.20;4.07;;;;;;;16.87;100.00;95935.69;5032746;28;20251;-62
2022/08/31 02:44:30;;;;;;;5.68;4.70;;;;;;;16.82;100.00;95932.75;5037474;28;20140;-62
2022/08/31 02:46:55;;;;;;;5.22;4.72;;;;;;;16.78;100.00;95939.38;5042881;28;20032;-62
2022/08/31 02:49:20;;;;;;;4.53;4.13;;;;;;;16.77;100.00;95935.91;5035926;28;20084;-62
2022/08/31 02:51:46;;;;;;;6.43;4.38;;;;;;;16.79;100.00;95933.91;5038176;28;20021;-62
2022/08/31 02:54:11;;;;;;;4.30;3.92;;;;;;;16.81;100.00;95937.22;5040509;28;20106;-62
2022/08/31 02:56:37;;;;;;;4.95;4.30;;;;;;;16.82;100.00;95941.53;5036699;28;20056;-62
2022/08/31 02:59:04;;;;;;;4.63;4.22;;;;;;;16.80;100.00;95935.56;5039727;28;20606;-62
2022/08/31 03:01:29;;;;;;;5.35;4.03;;;;;;;16.78;100.00;95934.06;5042486;28;20039;-62
2022/08/31 03:03:55;;;;;;;4.93;4.00;;;;;;;16.76;100.00;95932.41;5038026;28;20029;-62
2022/08/31 03:06:21;;;;;;;5.72;4.32;;;;;;;16.77;100.00;95943.91;5037788;28;20028;-62
2022/08/31 03:08:47;;;;;;;4.53;4.22;;;;;;;16.78;100.00;95939.38;5039498;28;20488;-62
2022/08/31 03:11:14;;;;;;;4.85;4.38;;;;;;;16.74;100.00;95925.63;5043737;28;20468;-62
2022/08/31 03:13:40;;;;;;;7.72;4.43;;;;;;;16.72;100.00;95933.78;5044059;28;20049;-62
2022/08/31 03:16:06;;;;;;;4.25;3.85;;;;;;;16.76;100.00;95935.06;5037690;28;20035;-62
2022/08/31 03:18:32;;;;;;;5.82;4.18;;;;;;;16.83;100.00;95921.91;5040941;28;20033;-62
2022/08/31 03:20:58;;;;;;;4.57;4.13;;;;;;;16.87;100.00;95922.41;5037705;28;20040;-62
2022/08/31 03:23:24;;;;;;;4.60;4.20;;;;;;;16.87;100.00;95925.06;5041300;28;20091;-62
2022/08/31 03:25:49;;;;;;;4.85;4.30;;;;;;;16.85;100.00;95922.56;5034245;28;20068;-62
2022/08/31 03:28:15;;;;;;;4.18;3.78;;;;;;;16.84;100.00;95925.41;5038373;28;20025;-62
2022/08/31 03:30:41;;;;;;;4.15;3.85;;;;;;;16.85;100.00;95930.53;5045149;28;20040;-62
2022/08/31 03:33:07;;;;;;;4.53;3.88;;;;;;;16.84;100.00;95931.53;5037007;28;20029;-63
2022/08/31 03:35:33;;;;;;;5.07;4.68;;;;;;;16.84;100.00;95936.88;5037917;28;20541;-62
2022/08/31 03:38:01;;;;;;;4.05;3.70;;;;;;;16.84;100.00;95933.41;5040876;28;20037;-63
2022/08/31 03:40:26;;;;;;;4.55;4.10;;;;;;;16.83;100.00;95932.56;5042409;28;20091;-63
2022/08/31 03:42:51;;;;;;;4.15;3.85;;;;;;;16.81;100.00;95931.91;5039900;28;20446;-63
2022/08/31 03:45:17;;;;;;;4.03;3.72;;;;;;;16.78;100.00;95940.22;5044723;28;20338;-63
2022/08/31 03:47:42;;;;;;;7.07;4.10;;;;;;;16.78;100.00;95950.88;5039414;28;20481;-63
2022/08/31 03:50:09;;;;;;;4.60;4.20;;;;;;;16.80;100.00;95946.19;5042836;28;20116;-63
2022/08/31 03:52:35;;;;;;;6.13;4.30;;;;;;;16.83;100.00;95940.53;5041456;28;20041;-62
2022/08/31 03:55:02;;;;;;;5.50;4.32;;;;;;;16.85;100.00;95938.53;5046174;28;20033;-62
2022/08/31 03:57:27;;;;;;;7.20;4.75;;;;;;;16.84;100.00;95939.53;5039495;28;20030;-63
2022/08/31 03:59:54;;;;;;;4.10;3.90;;;;;;;16.83;100.00;95935.22;5043073;28;20025;-62
2022/08/31 04:02:20;;;;;;;7.35;4.13;;;;;;;16.82;100.00;95936.22;5042694;28;20067;-63
2022/08/31 04:04:50;;;;;;;7.03;4.60;;;;;;;16.84;100.00;95944.03;5044551;28;20428;-62
2022/08/31 04:07:17;;;;;;;4.50;4.10;;;;;;;16.84;100.00;95944.84;5039107;28;20112;-62
2022/08/31 04:09:42;;;;;;;4.78;4.38;;;;;;;16.82;100.00;95946.84;5038863;28;20057;-63
2022/08/31 04:12:08;;;;;;;4.50;4.13;;;;;;;16.80;100.00;95942.69;5039106;28;20531;-62
2022/08/31 04:14:33;;;;;;;5.20;4.80;;;;;;;16.81;100.00;95942.53;5047025;28;20045;-62
2022/08/31 04:16:59;;;;;;;4.72;4.40;;;;;;;16.85;100.00;95940.38;5036038;28;20036;-62
2022/08/31 04:19:25;;;;;;;4.43;4.13;;;;;;;16.88;100.00;95948.81;5040610;28;20052;-62
2022/08/31 04:21:50;;;;;;;6.25;4.88;;;;;;;16.90;100.00;95944.13;5039283;28;20055;-63
2022/08/31 04:24:15;;;;;;;5.85;5.05;;;;;;;16.93;100.00;95939.50;5044265;28;20415;-62
2022/08/31 04:26:41;;;;;;;5.03;4.60;;;;;;;16.89;100.00;95944.31;5040863;28;20036;-63
2022/08/31 04:29:07;;;;;;;6.72;4.55;;;;;;;16.86;100.00;95944.69;5021601;28;20056;-62
2022/08/31 04:31:35;;;;;;;7.43;5.13;;;;;;;16.86;100.00;95940.16;5034482;28;20021;-62
2022/08/31 04:34:00;;;;;;;6.57;5.10;;;;;;;16.88;100.00;95940.00;5042742;28;20547;-62
2022/08/31 04:36:27;;;;;;;5.45;5.05;;;;;;;16.90;100.00;95938.00;5040763;28;20029;-62
2022/08/31 04:38:56;;;;;;;7.47;4.93;;;;;;;16.93;100.00;95944.81;5043407;28;20037;-62
2022/08/31 04:41:23;;;;;;;8.05;5.47;;;;;;;16.92;100.00;95937.84;5037249;28;20041;-62
2022/08/31 04:43:51;;;;;;;5.50;5.00;;;;;;;16.92;100.00;95940.50;5043165;28;20424;-62
2022/08/31 04:46:18;;;;;;;6.38;5.10;;;;;;;16.92;100.00;95948.47;5038522;28;20106;-62
2022/08/31 04:48:44;;;;;;;8.40;4.95;;;;;;;16.93;100.00;95944.81;5040048;28;20025;-62
2022/08/31 04:51:18;;;;;;;5.45;4.45;;;;;;;16.92;100.00;95932.53;5040046;28;20060;-62
2022/08/31 04:53:44;;;;;;;6.57;4.75;;;;;;;16.92;100.00;95938.66;5038220;28;20021;-62
2022/08/31 04:56:15;;;;;;;5.50;5.00;;;;;;;16.93;100.00;95947.47;5042880;28;20029;-62
2022/08/31 04:58:48;;;;;;;5.75;4.72;;;;;;;16.92;100.00;95940.50;5042858;28;20029;-62
2022/08/31 05:01:16;;;;;;;5.63;5.13;;;;;;;16.92;100.00;95945.81;5032991;28;20021;-62
2022/08/31 05:03:42;;;;;;;7.97;5.22;;;;;;;16.93;100.00;95948.28;5038224;28;20032;-62
2022/08/31 05:06:13;;;;;;;5.43;4.97;;;;;;;16.93;100.00;95950.94;5039507;28;20504;-62
2022/08/31 05:08:38;;;;;;;9.18;5.00;;;;;;;16.92;100.00;95949.28;5038621;28;20029;-62
2022/08/31 05:11:12;;;;;;;4.93;4.32;;;;;;;16.90;100.00;95960.09;5039583;28;20029;-61
2022/08/31 05:13:37;;;;;;;5.85;4.60;;;;;;;16.89;100.00;95966.41;5037566;28;20067;-66
2022/08/31 05:16:04;;;;;;;5.78;5.32;;;;;;;16.91;100.00;95963.59;5040452;28;20029;-67
2022/08/31 05:18:30;;;;;;;7.82;5.78;;;;;;;16.92;100.00;95959.91;5040608;28;20494;-66
2022/08/31 05:20:55;;;;;;;5.30;4.85;;;;;;;16.91;100.00;95958.28;5040436;28;20152;-66
2022/08/31 05:23:21;;;;;;;6.32;5.80;;;;;;;16.89;100.00;95958.44;5029244;28;20504;-66
2022/08/31 05:25:46;;;;;;;7.85;6.00;;;;;;;16.87;100.00;95949.81;5043349;28;20489;-67
2022/08/31 05:28:11;;;;;;;8.23;7.43;;;;;;;16.86;100.00;95964.09;5036532;28;20024;-67
2022/08/31 05:30:42;;;;;;;7.72;6.97;;;;;;;16.90;100.00;95968.06;5040157;28;20116;-66
2022/08/31 05:33:08;;;;;;;8.13;7.43;;;;;;;16.88;100.00;95967.41;5040106;28;20036;-66
2022/08/31 05:35:34;;;;;;;7.78;7.18;;;;;;;16.88;100.00;95963.94;5042521;28;20028;-66
2022/08/31 05:37:59;;;;;;;8.63;7.82;;;;;;;16.85;100.00;95962.44;5034617;28;20017;-66
2022/08/31 05:40:26;;;;;;;8.65;7.93;;;;;;;16.87;100.00;95960.44;5044885;28;20440;-67
2022/08/31 05:42:51;;;;;;;7.63;7.03;;;;;;;16.88;100.00;95959.44;5042763;28;20036;-66
2022/08/31 05:45:17;;;;;;;8.70;7.80;;;;;;;16.90;100.00;95961.94;5040990;28;20034;-66
2022/08/31 05:47:43;;;;;;;9.50;7.97;;;;;;;16.90;100.00;95962.75;5041119;28;20465;-66
2022/08/31 05:50:09;;;;;;;8.18;7.53;;;;;;;16.88;100.00;95967.41;5035688;28;20471;-66
2022/08/31 05:52:34;;;;;;;8.55;7.82;;;;;;;16.91;100.00;95971.56;5037049;28;20033;-66
2022/08/31 05:55:00;;;;;;;10.20;8.15;;;;;;;16.93;100.00;95974.06;5040352;28;20033;-67
2022/08/31 05:57:25;;;;;;;8.98;8.30;;;;;;;16.95;100.00;95975.53;5044194;28;20025;-66
2022/08/31 05:59:50;;;;;;;9.52;8.68;;;;;;;16.94;100.00;95975.72;5043150;28;20029;-66
2022/08/31 06:02:16;;;;;;;9.75;8.73;;;;;;;16.95;100.00;95964.06;5046320;28;20029;-67
2022/08/31 06:04:41;;;;;;;10.88;9.88;;;;;;;16.97;100.00;95970.03;5044090;28;20017;-66
2022/08/31 06:07:07;;;;;;;10.10;9.27;;;;;;;16.93;100.00;95956.25;5043847;28;20158;-66
2022/08/31 06:09:32;;;;;;;10.45;9.55;;;;;;;16.97;100.00;95948.78;5042670;28;20029;-66
2022/08/31 06:11:57;;;;;;;10.63;9.63;;;;;;;16.92;100.00;95953.78;5045257;28;20029;-66
2022/08/31 06:14:23;;;;;;;11.43;10.05;;;;;;;16.89;100.00;95952.31;5048749;28;20117;-66
2022/08/31 06:16:48;;;;;;;10.10;9.07;;;;;;;16.92;100.00;95945.81;5043610;28;20020;-67
2022/08/31 06:19:15;;;;;;;10.27;9.27;;;;;;;16.93;100.00;95950.94;5045375;28;20518;-66
2022/08/31 06:21:42;;;;;;;10.00;9.13;;;;;;;16.96;100.00;95953.25;5045655;28;20024;-67
2022/08/31 06:24:11;;;;;;;9.38;8.57;;;;;;;17.03;100.00;95964.88;5040156;28;20111;-66
2022/08/31 06:26:37;;;;;;;9.13;8.43;;;;;;;17.09;100.00;95959.88;5042723;28;20104;-66
2022/08/31 06:29:05;;;;;;;9.57;8.68;;;;;;;17.16;100.00;95960.81;5045027;28;20083;-67
2022/08/31 06:31:36;;;;;;;8.10;7.40;;;;;;;17.19;100.00;95963.09;5041426;28;20026;-67
2022/08/31 06:34:03;;;;;;;9.27;8.30;;;;;;;17.18;100.00;95953.47;5041619;28;20021;-66
2022/08/31 06:36:30;;;;;;;7.78;7.00;;;;;;;17.16;100.00;95945.69;5024690;28;20527;-67
2022/08/31 06:38:58;;;;;;;8.05;7.35;;;;;;;17.13;100.00;95940.72;5042530;28;20522;-67
2022/08/31 06:41:30;;;;;;;8.23;7.45;;;;;;;17.13;100.00;95938.06;5040345;28;20082;-67
2022/08/31 06:43:58;;;;;;;7.70;6.95;;;;;;;17.13;100.00;95940.72;5042602;28;20464;-67
2022/08/31 06:46:24;;;;;;;7.93;7.22;;;;;;;17.16;100.00;95939.53;5047513;28;20107;-67
2022/08/31 06:48:52;;;;;;;8.23;7.00;;;;;;;17.21;100.00;95949.63;5044170;28;20096;-66
2022/08/31 06:51:18;;;;;;;7.93;7.22;;;;;;;17.20;100.00;95950.66;5047023;28;20504;-67
2022/08/31 06:53:44;;;;;;;7.30;6.63;;;;;;;17.22;100.00;95944.13;5044441;28;20052;-68
2022/08/31 06:56:15;;;;;;;7.45;6.93;;;;;;;17.22;100.00;95943.31;5043922;28;20033;-67
2022/08/31 06:58:41;;;;;;;7.50;6.90;;;;;;;17.21;100.00;95947.78;5043137;28;20098;-68
2022/08/31 07:01:16;;;;;;;7.18;6.47;;;;;;;17.22;100.00;95932.66;5045808;28;20025;-67
2022/08/31 07:03:42;;;;;;;6.73;6.17;;;;;;;17.27;100.00;95940.94;5042501;28;20049;-68
2022/08/31 07:06:13;;;;;;;6.25;5.65;;;;;;;17.31;100.00;95939.56;5024221;28;20288;-68
2022/08/31 07:08:40;;;;;;;6.47;5.88;;;;;;;17.39;100.00;95944.00;5039039;28;20033;-68
2022/08/31 07:11:19;;;;;;;6.53;5.93;;;;;;;17.43;100.00;95935.50;5045750;28;20024;-68
2022/08/31 07:13:46;;;;;;;5.22;4.82;;;;;;;17.49;100.00;95943.75;5042915;28;20021;-69
2022/08/31 07:16:15;;;;;;;5.78;5.38;;;;;;;17.57;100.00;95941.03;5040429;28;20036;-65
2022/08/31 07:18:41;;;;;;;6.10;5.50;;;;;;;17.65;100.00;95929.47;5047277;28;20054;-65
2022/08/31 07:21:13;;;;;;;6.05;5.53;;;;;;;17.73;100.00;95929.41;5038871;28;20036;-65
2022/08/31 07:23:39;;;;;;;7.10;5.57;;;;;;;17.72;100.00;95925.09;5039905;28;20061;-65
2022/08/31 07:26:07;;;;;;;5.53;5.15;;;;;;;17.73;100.00;95924.91;5041453;28;20025;-65
2022/08/31 07:28:33;;;;;;;6.03;5.43;;;;;;;17.79;100.00;95914.53;5040023;28;20021;-65
2022/08/31 07:31:02;;;;;;;6.28;5.70;;;;;;;17.87;100.00;95914.47;5042477;28;20039;-64
2022/08/31 07:33:36;;;;;;;6.80;6.28;;;;;;;17.83;100.00;95911.31;5043015;28;20400;-65
2022/08/31 07:36:10;;;;;;;6.88;5.95;;;;;;;17.76;100.00;95916.56;5038429;28;20033;-65
2022/08/31 07:44:05;;;;;;;5.32;4.93;;;;;;;18.47;100.00;95904.63;5047599;28;20083;-64
2022/08/31 07:46:30;;;;;;;6.70;4.90;;;;;;;18.65;100.00;95903.41;5031870;28;20430;-65
2022/08/31 07:48:59;;;;;;;5.45;5.05;;;;;;;18.68;100.00;95902.19;5039261;28;20484;-65
2022/08/31 07:51:25;;;;;;;4.72;4.30;;;;;;;18.44;100.00;95904.16;5044396;28;20104;-65
2022/08/31 07:53:52;;;;;;;5.05;4.65;;;;;;;18.34;100.00;95901.78;5046388;28;20016;-64
2022/08/31 07:56:20;;;;;;;5.68;5.20;;;;;;;18.44;100.00;95902.34;5043048;28;20080;-65
2022/08/31 07:58:48;;;;;;;5.70;5.20;;;;;;;18.73;100.00;95900.63;5041547;28;20036;-65
2022/08/31 08:01:16;;;;;;;3.90;3.70;;;;;;;19.49;100.00;95905.69;5040044;28;20141;-64
2022/08/31 08:03:43;;;;;;;3.63;3.33;;;;;;;20.32;100.00;95900.50;5022069;28;20087;-64
2022/08/31 08:06:14;;;;;;;3.85;3.65;;;;;;;21.07;97.87;95896.22;5036910;28;20021;-65
2022/08/31 08:08:43;;;;;;;3.42;3.05;;;;;;;21.79;92.80;95890.31;5033915;28;20033;-63
2022/08/31 08:11:14;;;;;;;3.05;2.85;;;;;;;22.27;87.77;95894.56;5044756;28;20416;-64
2022/08/31 08:13:40;;;;;;;2.80;2.60;;;;;;;22.58;86.06;95894.88;5039409;28;20099;-65
2022/08/31 08:16:05;;;;;;;3.30;3.00;;;;;;;22.46;86.41;95900.91;5040399;28;20107;-65
2022/08/31 08:18:30;;;;;;;3.08;2.88;;;;;;;21.83;89.05;95896.91;5043208;28;20056;-65
2022/08/31 08:20:56;;;;;;;3.65;2.72;;;;;;;21.23;89.62;95905.75;5043003;28;20024;-65
2022/08/31 08:23:21;;;;;;;4.97;2.95;;;;;;;21.41;91.07;95896.25;5041298;28;20108;-65
2022/08/31 08:25:47;;;;;;;2.60;2.30;;;;;;;22.23;87.13;95898.69;5035104;28;20492;-66
2022/08/31 08:28:20;;;;;;;2.53;2.20;;;;;;;22.77;82.19;95892.31;5044255;28;20484;-66
2022/08/31 08:30:53;;;;;;;2.55;2.42;;;;;;;22.98;79.57;95900.03;5043472;28;20028;-65
2022/08/31 08:33:19;;;;;;;2.55;2.45;;;;;;;22.93;78.37;95899.06;5040274;28;20037;-66
2022/08/31 08:35:45;;;;;;;2.60;2.40;;;;;;;22.77;77.19;95906.56;5044400;28;20029;-66
2022/08/31 08:38:11;;;;;;;2.53;2.42;;;;;;;22.80;78.27;95898.06;5036671;28;20467;-65
2022/08/31 08:40:41;;;;;;;2.60;2.50;;;;;;;23.30;76.93;95896.56;5039333;28;20132;-65
2022/08/31 08:43:11;;;;;;;3.45;2.25;;;;;;;23.55;71.38;95895.78;5045608;28;20033;-66
2022/08/31 08:45:39;;;;;;;2.38;2.17;;;;;;;23.36;73.20;95890.34;5034958;28;20032;-66
2022/08/31 08:48:08;;;;;;;2.13;2.03;;;;;;;23.12;73.54;95887.38;5034780;28;20021;-66
2022/08/31 08:50:35;;;;;;;2.90;2.15;;;;;;;23.59;71.37;95899.66;5036673;28;20114;-66
2022/08/31 08:53:04;;;;;;;2.17;2.08;;;;;;;23.55;72.13;95893.09;5039527;28;20063;-67
2022/08/31 08:55:34;;;;;;;2.83;2.00;;;;;;;23.93;72.19;95889.41;5042088;28;20116;-66
2022/08/31 08:58:01;;;;;;;2.25;2.15;;;;;;;24.35;69.71;95885.28;5041885;28;20479;-67
2022/08/31 09:00:27;;;;;;;2.67;2.10;;;;;;;24.26;70.03;95882.06;5036921;28;20043;-66
2022/08/31 09:03:16;;;;;;;2.05;1.95;;;;;;;23.69;71.67;95888.41;5034981;28;20028;-67
2022/08/31 09:05:47;;;;;;;2.05;1.90;;;;;;;23.41;73.94;95890.50;5040232;28;20590;-66
2022/08/31 09:08:16;;;;;;;1.92;1.70;;;;;;;22.99;75.34;95887.44;5037814;28;20048;-66
2022/08/31 09:10:53;;;;;;;1.98;1.88;;;;;;;23.17;72.94;95886.69;5043592;28;20025;-66
2022/08/31 09:13:56;;;;;;;1.77;1.45;;;;;;;23.20;73.30;95878.22;5042536;28;20043;-66
2022/08/31 09:16:38;;;;;;;2.05;1.65;;;;;;;23.48;74.08;95882.38;5041003;28;20116;-66
2022/08/31 09:19:16;;;;;;;1.92;1.83;;;;;;;23.59;72.08;95880.84;5043111;28;20025;-66
2022/08/31 09:21:47;;;;;;;2.17;1.98;;;;;;;23.71;71.29;95876.38;5043590;28;20036;-66
2022/08/31 09:24:18;;;;;;;2.00;1.90;;;;;;;23.64;73.19;95881.00;5038473;28;20036;-66
2022/08/31 09:26:53;;;;;;;3.13;2.92;;;;;;;23.14;72.45;95871.88;5041804;28;20512;-67
2022/08/31 09:29:21;;;;;;;3.80;1.95;;;;;;;22.67;74.70;95874.81;5041424;28;20545;-67
2022/08/31 09:31:46;;;;;;;1.70;1.50;;;;;;;22.75;73.39;95877.25;5043725;28;20028;-65
2022/08/31 09:34:30;;;;;;;3.58;1.85;;;;;;;23.00;73.78;95864.94;5046796;28;20025;-65
2022/08/31 09:37:32;;;;;;;2.30;2.10;;;;;;;23.07;72.64;95868.38;5041957;28;20039;-65
2022/08/31 09:40:16;;;;;;;1.98;1.88;;;;;;;23.24;72.10;95867.84;5036678;28;20036;-67
2022/08/31 09:42:45;;;;;;;4.00;2.13;;;;;;;22.98;72.40;95867.00;5043501;28;20121;-65
2022/08/31 09:45:28;;;;;;;1.90;1.80;;;;;;;23.11;73.26;95869.63;5042391;28;20095;-66
2022/08/31 09:48:00;;;;;;;2.65;2.05;;;;;;;23.39;72.08;95863.03;5047926;28;20083;-66
2022/08/31 09:50:36;;;;;;;2.80;2.30;;;;;;;23.63;71.21;95865.94;5047829;28;20291;-67
2022/08/31 09:56:12;;;;;;;1.63;1.60;;;;;;;23.80;70.26;95852.75;5044867;28;20167;-62
2022/08/31 09:58:51;;;;;;;2.03;1.92;;;;;;;24.15;68.75;95860.28;5046867;28;20025;-62
2022/08/31 10:01:41;;;;;;;5.32;2.22;;;;;;;24.82;65.42;95855.94;5041519;28;20029;-62
2022/08/31 10:04:15;;;;;;;2.10;2.00;;;;;;;25.26;64.94;95857.59;5039261;28;20045;-62
2022/08/31 10:06:56;;;;;;;2.60;2.40;;;;;;;24.34;66.36;95856.75;5046568;28;20067;-62
2022/08/31 10:10:00;;;;;;;2.67;2.03;;;;;;;24.01;66.34;95848.84;5042823;28;20104;-63
2022/08/31 10:12:38;;;;;;;2.15;2.05;;;;;;;24.43;67.80;95845.47;5006424;28;20073;-62
2022/08/31 10:15:22;;;;;;;2.38;2.13;;;;;;;24.23;67.44;95850.25;5048322;28;20025;-62
2022/08/31 10:18:21;;;;;;;1.80;1.70;;;;;;;24.32;68.35;95844.34;5049667;28;20029;-62
2022/08/31 10:20:57;;;;;;;1.80;1.70;;;;;;;24.33;66.25;95842.50;5034156;28;20062;-62
2022/08/31 10:23:53;;;;;;;5.53;1.88;;;;;;;24.39;65.78;95840.75;5050896;28;20033;-63
2022/08/31 10:26:41;;;;;;;2.05;1.95;;;;;;;24.17;66.21;95839.34;5044165;28;20080;-62
2022/08/31 10:29:35;;;;;;;3.67;2.15;;;;;;;24.44;65.86;95830.16;5042712;28;20401;-63
2022/08/31 10:32:18;;;;;;;2.20;2.00;;;;;;;24.50;65.01;95840.00;5036525;28;20045;-62
2022/08/31 10:35:06;;;;;;;1.90;1.77;;;;;;;23.68;67.11;95841.91;5046134;28;20516;-63
2022/08/31 10:37:35;;;;;;;2.42;2.03;;;;;;;24.09;65.90;95839.63;5042538;28;20113;-63
2022/08/31 10:40:37;;;;;;;2.22;2.10;;;;;;;24.29;64.61;95844.81;5039118;28;20065;-62
2022/08/31 10:43:16;;;;;;;2.10;1.90;;;;;;;24.77;63.69;95828.91;5025712;28;20041;-63
2022/08/31 10:45:47;;;;;;;2.00;1.77;;;;;;;24.40;63.74;95831.63;5042855;28;20029;-62
2022/08/31 10:48:15;;;;;;;1.80;1.70;;;;;;;24.89;63.62;95828.94;5040073;28;20026;-63
2022/08/31 10:50:53;;;;;;;1.92;1.83;;;;;;;25.46;60.10;95824.94;5044126;28;20100;-63
2022/08/31 10:53:33;;;;;;;8.43;1.92;;;;;;;25.90;58.57;95819.22;5046572;28;20480;-63
2022/08/31 10:56:13;;;;;;;1.70;1.60;;;;;;;25.73;58.89;95825.31;5039952;28;20044;-63
2022/08/31 10:59:11;;;;;;;2.05;1.90;;;;;;;25.76;58.32;95812.44;5045364;28;20037;-63
2022/08/31 11:01:49;;;;;;;2.28;2.17;;;;;;;25.23;59.16;95813.09;5039327;28;20523;-63
2022/08/31 11:04:35;;;;;;;1.95;1.85;;;;;;;25.39;58.95;95799.97;5041554;28;20082;-63
2022/08/31 11:07:25;;;;;;;1.98;1.88;;;;;;;25.70;59.54;95798.81;5046051;28;20025;-64
2022/08/31 11:10:09;;;;;;;2.03;1.77;;;;;;;26.12;58.22;95799.72;5043552;28;20029;-64
2022/08/31 11:12:41;;;;;;;2.10;1.97;;;;;;;26.42;56.83;95796.03;5040986;28;20489;-64
2022/08/31 11:15:37;;;;;;;2.13;2.03;;;;;;;26.43;56.73;95786.88;5050677;28;20032;-64
2022/08/31 11:18:34;;;;;;;2.00;1.90;;;;;;;26.36;56.63;95792.41;5039688;28;20405;-65
2022/08/31 11:21:19;;;;;;;1.98;1.88;;;;;;;25.64;58.48;95785.47;5039546;28;20044;-64
2022/08/31 11:24:03;;;;;;;2.10;2.00;;;;;;;25.39;59.78;95781.94;5036908;28;20416;-64
2022/08/31 11:26:44;;;;;;;1.90;1.75;;;;;;;24.96;59.78;95783.88;5041374;28;20625;-64
2022/08/31 11:29:30;;;;;;;2.00;1.90;;;;;;;25.12;60.88;95781.56;5042828;28;20025;-64
2022/08/31 11:32:05;;;;;;;5.22;2.05;;;;;;;26.00;58.93;95770.91;5040170;28;20033;-64
2022/08/31 11:34:46;;;;;;;2.58;2.38;;;;;;;26.77;56.82;95773.44;5040328;28;20043;-64
2022/08/31 11:37:31;;;;;;;2.55;2.33;;;;;;;27.14;55.47;95755.97;5041877;28;20496;-64
2022/08/31 11:39:57;;;;;;;2.42;2.10;;;;;;;27.56;53.52;95757.47;5041382;28;20112;-64
2022/08/31 11:42:25;;;;;;;2.00;1.90;;;;;;;26.98;53.98;95752.22;5041059;28;20498;-64
2022/08/31 11:45:25;;;;;;;2.10;2.00;;;;;;;26.81;54.65;95747.59;5047608;28;20099;-64
2022/08/31 11:47:53;;;;;;;2.13;2.00;;;;;;;26.90;55.62;95741.81;5039301;28;20106;-65
2022/08/31 11:50:22;;;;;;;4.78;1.98;;;;;;;27.12;54.25;95745.44;5039324;28;20503;-65
2022/08/31 11:52:52;;;;;;;2.22;2.03;;;;;;;27.58;51.97;95741.81;5045102;28;20439;-65